Flagstaff, AZ (86001)

1:10 AM MST on July 30, 2016 (GMT -0700)
University Highlands | | Change Station

Elev 7067 ft 35.17 °N, 111.68 °W | Updated 19 seconds ago

Overcast
Overcast
66.0 °F
Feels Like 66.0 °F
N
2.7
Wind Variable Wind from SW
Gusts 4.9 mph

Today
High -- | Low -- °F
--% Chance of Precip.
Yesterday
High -- | Low -- °F
Precip. -- in
Pressure 29.87 in
Visibility 10.0 miles
Clouds Scattered Clouds 9000 ft
Overcast 12000 ft
Dew Point 49 °F
Humidity 54%
Rainfall 0.00 in
Snow Depth Not available.
5:34 AM 7:30 PM
Waning Crescent, 15% visible
METAR KFLG 300757Z AUTO 27005KT 10SM SCT090 OVC120 19/09 A3025 RMK AO2 SLP114 T01890089 TSNO
Pressure 29.87 in
Visibility 10.0 miles
Clouds Scattered Clouds 9000 ft
Overcast 12000 ft
Dew Point 49 °F
Humidity 54%
Rainfall 0.00 in
Snow Depth Not available.
5:34 AM 7:30 PM
Waning Crescent, 15% visible
METAR KFLG 300757Z AUTO 27005KT 10SM SCT090 OVC120 19/09 A3025 RMK AO2 SLP114 T01890089 TSNO

10-Day Weather Forecast

Almanac

Astronomy

Jul. 30, 2016 Rise Set
Actual Time
Civil Twilight
Nautical Twilight
Astronomical Twilight
Moon
Length of Visible Light
Length of Day
Tomorrow will be .
, % of the Moon is Illuminated

Today's Extremes

State Highs State Lows

Community

WunderPhotos

Upload Photos

1,928,508 photos uploaded!

WunderBlog® & News

Nearby

Air Quality

  Air Quality AQ Index Pollutant
Not available.

Snow Depth

Station Depth Elevation

Earthquake Activity

City Distance Mag. Time & Date
Minimum magnitude displayed is 2.5.

Coastal Water Temperatures

Place Temperature

Stations

Nearby Weather Stations

Station Location Temp. Windchill Dew Point Humidity Wind Precip. Elev Updated Type
                   

Watches & Warnings

There are currently no watches in effect.